Time;durP1;ratioP1;P1;durP2;ratioP2;P2;SDS_P1;SDS_P2;PMS_P1;PMS_P2;Temp;Humidity;BMP_temperature;BMP_pressure;BME280_temperature;BME280_humidity;BME280_pressure;Samples;Min_cycle;Max_cycle;Signal;HPM_P1;HPM_P2
2022/10/09 00:00:45;;;;;;;29.93;19.93;;;;;;;;;;4349650;33;20234;-89
2022/10/09 00:03:12;;;;;;;32.50;18.27;;;;;;;;;;4349683;33;20253;-89
2022/10/09 00:05:39;;;;;;;26.23;19.03;;;;;;;;;;4349620;33;20648;-89
2022/10/09 00:08:06;;;;;;;31.27;18.97;;;;;;;;;;4349772;33;20219;-89
2022/10/09 00:10:33;;;;;;;26.53;19.03;;;;;;;;;;4349394;33;20256;-90
2022/10/09 00:13:00;;;;;;;46.20;19.70;;;;;;;;;;4349434;33;20226;-89
2022/10/09 00:15:28;;;;;;;34.83;19.73;;;;;;;;;;4349411;33;20249;-89
2022/10/09 00:17:55;;;;;;;28.73;20.20;;;;;;;;;;4349237;33;20556;-90
2022/10/09 00:20:21;;;;;;;26.90;18.37;;;;;;;;;;4349353;33;20238;-89
2022/10/09 00:22:48;;;;;;;28.23;18.63;;;;;;;;;;4349231;33;20294;-89
2022/10/09 00:25:15;;;;;;;31.50;19.07;;;;;;;;;;4349315;33;20235;-89
2022/10/09 00:27:42;;;;;;;34.40;19.17;;;;;;;;;;4349101;33;20215;-90
2022/10/09 00:30:10;;;;;;;29.63;17.50;;;;;;;;;;4348668;33;20234;-89
2022/10/09 00:32:38;;;;;;;34.27;18.77;;;;;;;;;;4349315;33;20278;-88
2022/10/09 00:35:05;;;;;;;30.47;17.40;;;;;;;;;;4348604;33;20246;-89
2022/10/09 00:37:32;;;;;;;26.77;17.20;;;;;;;;;;4348894;33;20215;-88
2022/10/09 00:39:59;;;;;;;27.60;16.23;;;;;;;;;;4348403;33;20230;-89
2022/10/09 00:42:26;;;;;;;27.90;15.50;;;;;;;;;;4348647;33;20233;-88
2022/10/09 00:44:56;;;;;;;31.50;16.87;;;;;;;;;;4348745;33;20683;-89
2022/10/09 00:47:29;;;;;;;27.23;16.13;;;;;;;;;;4349152;33;20239;-89
2022/10/09 00:50:03;;;;;;;18.83;14.77;;;;;;;;;;4348844;33;20598;-89
2022/10/09 00:52:31;;;;;;;22.63;16.50;;;;;;;;;;4348670;33;20218;-89
2022/10/09 00:55:01;;;;;;;34.13;17.83;;;;;;;;;;4348874;33;20305;-91
2022/10/09 00:57:28;;;;;;;41.53;19.70;;;;;;;;;;4348326;33;20345;-89
2022/10/09 00:59:55;;;;;;;25.70;16.97;;;;;;;;;;4348339;33;20289;-89
2022/10/09 01:02:22;;;;;;;21.87;15.70;;;;;;;;;;4348685;33;20223;-90
2022/10/09 01:04:49;;;;;;;30.33;16.93;;;;;;;;;;4348647;33;20234;-89
2022/10/09 01:07:38;;;;;;;26.43;15.60;;;;;;;;;;4348596;33;20262;-89
2022/10/09 01:10:10;;;;;;;24.50;15.83;;;;;;;;;;4348102;33;20290;-90
2022/10/09 01:12:46;;;;;;;22.90;15.27;;;;;;;;;;4348898;33;20289;-89
2022/10/09 01:15:17;;;;;;;25.17;15.67;;;;;;;;;;4348200;33;20238;-90
2022/10/09 01:17:56;;;;;;;31.23;15.77;;;;;;;;;;4348733;33;20225;-89
2022/10/09 01:20:35;;;;;;;23.87;15.50;;;;;;;;;;4348502;33;20252;-89
2022/10/09 01:23:37;;;;;;;23.77;14.27;;;;;;;;;;4348854;33;20262;-88
2022/10/09 01:26:14;;;;;;;21.30;13.40;;;;;;;;;;4325209;33;20583;-89
2022/10/09 01:28:44;;;;;;;21.23;13.27;;;;;;;;;;4348586;33;20227;-89
2022/10/09 01:31:13;;;;;;;16.20;11.47;;;;;;;;;;4348157;33;20215;-88
2022/10/09 01:33:40;;;;;;;20.27;13.17;;;;;;;;;;4348304;33;20219;-89
2022/10/09 01:36:09;;;;;;;18.93;13.67;;;;;;;;;;4348271;33;20227;-89
2022/10/09 01:38:39;;;;;;;19.93;12.67;;;;;;;;;;4347699;33;20215;-90
2022/10/09 01:41:08;;;;;;;19.70;12.80;;;;;;;;;;4348242;33;20581;-89
2022/10/09 01:43:35;;;;;;;24.57;13.47;;;;;;;;;;4347625;33;20237;-89
2022/10/09 01:46:21;;;;;;;18.07;13.40;;;;;;;;;;4347481;33;20252;-90
2022/10/09 01:48:54;;;;;;;26.80;14.27;;;;;;;;;;4347519;33;20611;-89
2022/10/09 01:51:24;;;;;;;18.77;12.93;;;;;;;;;;4347849;33;20272;-89
2022/10/09 01:53:55;;;;;;;21.63;14.37;;;;;;;;;;4347657;33;20261;-88
2022/10/09 01:56:24;;;;;;;28.83;18.70;;;;;;;;;;4347894;33;20652;-89
2022/10/09 01:58:56;;;;;;;21.50;16.07;;;;;;;;;;4347208;33;20222;-88
2022/10/09 02:01:28;;;;;;;19.30;13.33;;;;;;;;;;4347971;33;20265;-89
2022/10/09 02:03:57;;;;;;;17.13;11.73;;;;;;;;;;4347540;33;20294;-89
2022/10/09 02:06:26;;;;;;;15.67;10.30;;;;;;;;;;4347237;33;20219;-89
2022/10/09 02:08:55;;;;;;;16.17;9.10;;;;;;;;;;4347769;33;20219;-89
2022/10/09 02:11:24;;;;;;;15.37;9.17;;;;;;;;;;4347212;33;20270;-90
2022/10/09 02:13:52;;;;;;;14.47;9.10;;;;;;;;;;4347210;33;20237;-90
2022/10/09 02:16:22;;;;;;;11.13;7.63;;;;;;;;;;4347797;33;20328;-89
2022/10/09 02:18:56;;;;;;;13.80;8.73;;;;;;;;;;4347383;33;20302;-89
2022/10/09 02:21:27;;;;;;;21.13;10.20;;;;;;;;;;4347640;33;20269;-88
2022/10/09 02:23:56;;;;;;;17.60;12.13;;;;;;;;;;4347104;33;20218;-89
2022/10/09 02:26:23;;;;;;;21.93;11.70;;;;;;;;;;4347067;33;20238;-89
2022/10/09 02:28:51;;;;;;;16.97;10.80;;;;;;;;;;4347371;33;20637;-89
2022/10/09 02:31:22;;;;;;;14.97;9.30;;;;;;;;;;4347314;33;20243;-89
2022/10/09 02:33:56;;;;;;;18.73;8.07;;;;;;;;;;4347260;33;20298;-89
2022/10/09 02:36:23;;;;;;;12.63;7.90;;;;;;;;;;4347455;33;20684;-89
2022/10/09 02:38:49;;;;;;;15.23;8.80;;;;;;;;;;4347267;33;20348;-89
2022/10/09 02:41:19;;;;;;;13.17;7.07;;;;;;;;;;4347357;33;20244;-89
2022/10/09 02:43:46;;;;;;;10.53;6.60;;;;;;;;;;4346931;33;20227;-90
2022/10/09 02:46:12;;;;;;;13.53;7.87;;;;;;;;;;4347366;33;20218;-89
2022/10/09 02:48:39;;;;;;;11.07;7.97;;;;;;;;;;4346946;33;20679;-89
2022/10/09 02:51:07;;;;;;;13.03;7.77;;;;;;;;;;4347367;33;20211;-90
2022/10/09 02:53:35;;;;;;;13.43;8.80;;;;;;;;;;4332348;33;20581;-91
2022/10/09 02:56:02;;;;;;;17.23;9.80;;;;;;;;;;4332045;33;20298;-89
2022/10/09 02:58:31;;;;;;;15.57;9.90;;;;;;;;;;4332539;33;20282;-90
2022/10/09 03:00:58;;;;;;;11.97;7.90;;;;;;;;;;4332576;33;20239;-90
2022/10/09 03:03:24;;;;;;;16.77;9.13;;;;;;;;;;4332464;33;20269;-89
2022/10/09 03:06:00;;;;;;;10.57;7.70;;;;;;;;;;4335097;33;20239;-89
2022/10/09 03:08:28;;;;;;;10.07;8.67;;;;;;;;;;4335800;33;20215;-90
2022/10/09 03:10:55;;;;;;;11.07;8.97;;;;;;;;;;4335569;33;20751;-89
2022/10/09 03:13:22;;;;;;;10.93;8.53;;;;;;;;;;4335384;33;20220;-89
2022/10/09 03:15:49;;;;;;;12.43;9.07;;;;;;;;;;4334937;33;20294;-90
2022/10/09 03:18:16;;;;;;;14.37;10.30;;;;;;;;;;4335370;33;20237;-89
2022/10/09 03:20:42;;;;;;;17.00;9.77;;;;;;;;;;4334828;33;20677;-89
2022/10/09 03:23:09;;;;;;;15.43;11.70;;;;;;;;;;4335578;33;20319;-90
2022/10/09 03:25:37;;;;;;;21.23;10.73;;;;;;;;;;4335327;33;20238;-91
2022/10/09 03:28:04;;;;;;;16.73;11.33;;;;;;;;;;4335318;33;20241;-90
2022/10/09 03:30:31;;;;;;;15.33;11.07;;;;;;;;;;4334871;33;20231;-90
2022/10/09 03:32:58;;;;;;;20.13;12.00;;;;;;;;;;4335250;33;20219;-90
2022/10/09 03:35:25;;;;;;;19.77;12.07;;;;;;;;;;4334978;33;20242;-89
2022/10/09 03:37:51;;;;;;;15.43;11.93;;;;;;;;;;4335148;33;20597;-89
2022/10/09 03:40:18;;;;;;;18.70;12.07;;;;;;;;;;4335065;33;20738;-89
2022/10/09 03:42:46;;;;;;;18.40;12.13;;;;;;;;;;4334996;33;20310;-90
2022/10/09 03:45:13;;;;;;;20.87;12.13;;;;;;;;;;4334705;33;20227;-90
2022/10/09 03:47:40;;;;;;;15.50;11.13;;;;;;;;;;4335177;33;20298;-89
2022/10/09 03:50:08;;;;;;;17.80;10.93;;;;;;;;;;4335021;33;20238;-89
2022/10/09 03:52:35;;;;;;;16.77;11.13;;;;;;;;;;4343560;33;20219;-89
2022/10/09 03:55:02;;;;;;;12.57;9.57;;;;;;;;;;4349608;33;20298;-90
2022/10/09 03:57:28;;;;;;;12.17;9.13;;;;;;;;;;4349533;33;20219;-89
2022/10/09 03:59:57;;;;;;;14.53;10.70;;;;;;;;;;4349150;33;20242;-89
2022/10/09 04:02:23;;;;;;;15.33;9.80;;;;;;;;;;4348997;33;20239;-90
2022/10/09 04:04:50;;;;;;;20.20;10.67;;;;;;;;;;4349465;33;20313;-89
2022/10/09 04:07:17;;;;;;;16.50;10.20;;;;;;;;;;4349371;33;20214;-90
2022/10/09 04:09:44;;;;;;;13.40;9.47;;;;;;;;;;4349168;33;20230;-89
2022/10/09 04:12:10;;;;;;;13.30;9.70;;;;;;;;;;4349303;33;20690;-89
2022/10/09 04:14:37;;;;;;;15.13;9.97;;;;;;;;;;4349149;33;20242;-89
2022/10/09 04:17:06;;;;;;;14.40;10.10;;;;;;;;;;4349284;33;20313;-90
2022/10/09 04:19:32;;;;;;;16.63;11.20;;;;;;;;;;4348891;33;20261;-89
2022/10/09 04:21:59;;;;;;;19.87;11.13;;;;;;;;;;4349118;33;20237;-89
2022/10/09 04:24:26;;;;;;;16.53;10.67;;;;;;;;;;4348738;33;20230;-89
2022/10/09 04:26:53;;;;;;;17.63;11.53;;;;;;;;;;4348981;33;20644;-89
2022/10/09 04:29:20;;;;;;;17.13;11.23;;;;;;;;;;4349047;33;20243;-89
2022/10/09 04:31:47;;;;;;;19.43;11.47;;;;;;;;;;4349181;33;20219;-88
2022/10/09 04:34:15;;;;;;;20.17;10.70;;;;;;;;;;4335706;33;20243;-89
2022/10/09 04:36:42;;;;;;;17.27;10.50;;;;;;;;;;4348943;33;20293;-89
2022/10/09 04:39:09;;;;;;;13.57;9.77;;;;;;;;;;4349093;33;20227;-89
2022/10/09 04:41:35;;;;;;;14.73;10.10;;;;;;;;;;4348914;33;20702;-89
2022/10/09 04:44:02;;;;;;;19.10;10.73;;;;;;;;;;4348992;33;20242;-89
2022/10/09 04:46:29;;;;;;;17.43;10.13;;;;;;;;;;4348827;33;20265;-90
2022/10/09 04:48:56;;;;;;;12.57;10.73;;;;;;;;;;4348785;33;20235;-89
2022/10/09 04:51:24;;;;;;;17.27;11.20;;;;;;;;;;4348075;33;20620;-90
2022/10/09 04:53:51;;;;;;;23.27;11.67;;;;;;;;;;4348893;33;20285;-89
2022/10/09 04:56:20;;;;;;;16.70;11.07;;;;;;;;;;4348847;33;20233;-89
2022/10/09 04:58:48;;;;;;;13.43;10.57;;;;;;;;;;4349070;33;20219;-90
2022/10/09 05:01:16;;;;;;;22.17;11.23;;;;;;;;;;4348672;33;20644;-89
2022/10/09 05:03:43;;;;;;;17.67;11.00;;;;;;;;;;4348659;33;20674;-89
2022/10/09 05:06:14;;;;;;;21.03;11.30;;;;;;;;;;4348806;33;20226;-90
2022/10/09 05:08:42;;;;;;;17.30;11.20;;;;;;;;;;4348963;33;20379;-90
2022/10/09 05:11:12;;;;;;;16.13;12.07;;;;;;;;;;4348625;33;20604;-90
2022/10/09 05:13:43;;;;;;;20.57;13.97;;;;;;;;;;4348119;33;20289;-90
2022/10/09 05:16:12;;;;;;;18.13;12.13;;;;;;;;;;4348499;33;20289;-89
2022/10/09 05:18:41;;;;;;;16.93;12.80;;;;;;;;;;4348064;33;20710;-90
2022/10/09 05:21:08;;;;;;;19.60;10.80;;;;;;;;;;4348081;33;20227;-89
2022/10/09 05:23:35;;;;;;;24.13;12.70;;;;;;;;;;4348550;33;20655;-89
2022/10/09 05:26:05;;;;;;;20.53;12.37;;;;;;;;;;4348039;33;20230;-89
2022/10/09 05:28:32;;;;;;;21.33;12.40;;;;;;;;;;4347584;33;20218;-89
2022/10/09 05:30:59;;;;;;;21.53;12.53;;;;;;;;;;4348082;33;20230;-91
2022/10/09 05:33:27;;;;;;;15.30;11.97;;;;;;;;;;4348599;33;20219;-89
2022/10/09 05:35:56;;;;;;;22.07;13.70;;;;;;;;;;4348086;33;20231;-88
2022/10/09 05:38:24;;;;;;;24.63;13.40;;;;;;;;;;4348281;33;20227;-89
2022/10/09 05:40:52;;;;;;;21.43;14.20;;;;;;;;;;4348317;33;20687;-90
2022/10/09 05:43:22;;;;;;;19.70;13.63;;;;;;;;;;4348462;33;20227;-91
2022/10/09 05:45:49;;;;;;;18.73;13.40;;;;;;;;;;4348430;33;20234;-91
2022/10/09 05:48:16;;;;;;;19.03;12.33;;;;;;;;;;4348283;33;20214;-89
2022/10/09 05:50:43;;;;;;;25.50;12.50;;;;;;;;;;4348238;33;20239;-90
2022/10/09 05:53:09;;;;;;;25.20;15.67;;;;;;;;;;4347665;33;20219;-89
2022/10/09 05:55:36;;;;;;;20.17;15.47;;;;;;;;;;4348108;33;20297;-89
2022/10/09 05:58:03;;;;;;;49.67;18.43;;;;;;;;;;4348037;33;20210;-90
2022/10/09 06:00:31;;;;;;;29.77;15.33;;;;;;;;;;4347536;33;20235;-90
2022/10/09 06:02:58;;;;;;;23.23;14.60;;;;;;;;;;4348285;33;20269;-89
2022/10/09 06:05:25;;;;;;;26.37;14.27;;;;;;;;;;4347772;33;20243;-89
2022/10/09 06:07:52;;;;;;;24.07;12.60;;;;;;;;;;4348827;33;20718;-89
2022/10/09 06:10:18;;;;;;;18.20;12.37;;;;;;;;;;4350221;33;20640;-87
2022/10/09 06:12:45;;;;;;;23.40;13.87;;;;;;;;;;4352832;33;20248;-87
2022/10/09 06:15:13;;;;;;;28.90;15.00;;;;;;;;;;4354418;33;20328;-87
2022/10/09 06:17:41;;;;;;;46.70;15.23;;;;;;;;;;4352641;33;20222;-90
2022/10/09 06:20:08;;;;;;;26.90;14.30;;;;;;;;;;4354626;33;20254;-89
2022/10/09 06:22:38;;;;;;;27.13;13.27;;;;;;;;;;4357494;33;20246;-90
2022/10/09 06:25:05;;;;;;;16.30;10.73;;;;;;;;;;4350621;33;20230;-90
2022/10/09 06:27:32;;;;;;;18.70;11.87;;;;;;;;;;4352361;33;20277;-89
2022/10/09 06:29:59;;;;;;;22.53;12.07;;;;;;;;;;4349209;33;20624;-90
2022/10/09 06:32:25;;;;;;;18.47;11.60;;;;;;;;;;4349454;33;20290;-90
2022/10/09 06:34:55;;;;;;;21.33;11.43;;;;;;;;;;4348315;33;20256;-90
2022/10/09 06:37:21;;;;;;;22.47;11.53;;;;;;;;;;4348073;33;20315;-89
2022/10/09 06:39:48;;;;;;;18.77;12.67;;;;;;;;;;4346443;33;20588;-89
2022/10/09 06:42:16;;;;;;;25.03;14.13;;;;;;;;;;4347742;33;20222;-89
2022/10/09 06:44:44;;;;;;;27.83;14.63;;;;;;;;;;4348571;33;20281;-90
2022/10/09 06:47:11;;;;;;;26.80;15.90;;;;;;;;;;4347043;33;20223;-89
2022/10/09 06:49:38;;;;;;;21.27;14.17;;;;;;;;;;4347595;33;20231;-88
2022/10/09 06:52:06;;;;;;;25.83;15.07;;;;;;;;;;4346939;33;20250;-89
2022/10/09 06:54:33;;;;;;;20.60;13.77;;;;;;;;;;4347715;33;20680;-88
2022/10/09 06:56:59;;;;;;;19.77;12.90;;;;;;;;;;4348199;33;20721;-88
2022/10/09 06:59:26;;;;;;;20.27;12.93;;;;;;;;;;4348227;33;20234;-89
2022/10/09 07:01:55;;;;;;;24.60;13.83;;;;;;;;;;4346748;33;20218;-90
2022/10/09 07:04:22;;;;;;;21.50;13.53;;;;;;;;;;4347253;33;20372;-89
2022/10/09 07:06:49;;;;;;;24.13;13.03;;;;;;;;;;4347318;33;20280;-89
2022/10/09 07:09:17;;;;;;;19.77;12.70;;;;;;;;;;4347012;33;20285;-89
2022/10/09 07:11:45;;;;;;;15.73;12.07;;;;;;;;;;4346685;33;20518;-87
2022/10/09 07:14:14;;;;;;;29.37;13.00;;;;;;;;;;4347136;33;20742;-88
2022/10/09 07:16:43;;;;;;;17.50;12.93;;;;;;;;;;4346674;33;20215;-88
2022/10/09 07:19:11;;;;;;;22.77;13.40;;;;;;;;;;4347127;33;20235;-88
2022/10/09 07:21:40;;;;;;;20.70;12.03;;;;;;;;;;4346933;33;20249;-88
2022/10/09 07:24:08;;;;;;;23.37;13.13;;;;;;;;;;4346810;33;20239;-88
2022/10/09 07:26:37;;;;;;;16.70;11.80;;;;;;;;;;4347181;33;20233;-89
2022/10/09 07:29:06;;;;;;;16.50;11.37;;;;;;;;;;4346961;33;20238;-89
2022/10/09 07:31:33;;;;;;;17.43;12.13;;;;;;;;;;4346512;33;20518;-88
2022/10/09 07:33:59;;;;;;;22.43;12.43;;;;;;;;;;4346668;33;20363;-88
2022/10/09 07:36:26;;;;;;;19.20;12.47;;;;;;;;;;4333835;33;20235;-88
2022/10/09 07:38:56;;;;;;;15.53;10.30;;;;;;;;;;4346799;33;20219;-88
2022/10/09 07:41:24;;;;;;;12.97;10.70;;;;;;;;;;4346891;33;20273;-88
2022/10/09 07:44:00;;;;;;;12.87;10.47;;;;;;;;;;4347026;33;20616;-88
2022/10/09 07:46:28;;;;;;;14.43;10.43;;;;;;;;;;4346999;33;20282;-86
2022/10/09 07:48:54;;;;;;;15.97;9.70;;;;;;;;;;4347053;33;20229;-87
2022/10/09 07:51:24;;;;;;;17.67;10.63;;;;;;;;;;4348830;33;20282;-88
2022/10/09 07:53:51;;;;;;;12.33;9.77;;;;;;;;;;4349705;33;20223;-87
2022/10/09 07:56:20;;;;;;;16.60;10.00;;;;;;;;;;4350000;33;20227;-89
2022/10/09 07:58:49;;;;;;;19.20;10.53;;;;;;;;;;4350129;33;20248;-88
2022/10/09 08:01:17;;;;;;;18.07;9.97;;;;;;;;;;4350865;33;20223;-87
2022/10/09 08:03:44;;;;;;;16.00;9.17;;;;;;;;;;4350084;33;20219;-88
2022/10/09 08:06:11;;;;;;;18.67;7.97;;;;;;;;;;4350593;33;20579;-88
2022/10/09 08:08:38;;;;;;;16.63;8.77;;;;;;;;;;4349860;33;20234;-89
2022/10/09 08:11:09;;;;;;;12.97;8.27;;;;;;;;;;4349737;33;20237;-88
2022/10/09 08:13:36;;;;;;;18.07;8.90;;;;;;;;;;4349683;33;20211;-88
2022/10/09 08:16:03;;;;;;;11.30;7.80;;;;;;;;;;4349469;33;20238;-88
2022/10/09 08:18:31;;;;;;;14.53;8.10;;;;;;;;;;4349541;33;20219;-88
2022/10/09 08:21:00;;;;;;;16.53;7.90;;;;;;;;;;4349001;33;20238;-87
2022/10/09 08:23:27;;;;;;;16.67;9.57;;;;;;;;;;4349348;33;20227;-88
2022/10/09 08:25:55;;;;;;;10.37;7.73;;;;;;;;;;4349922;33;20317;-88
2022/10/09 08:28:22;;;;;;;10.87;7.60;;;;;;;;;;4349309;33;20299;-88
2022/10/09 08:30:49;;;;;;;15.47;7.77;;;;;;;;;;4349627;33;20242;-88
2022/10/09 08:33:20;;;;;;;15.27;8.23;;;;;;;;;;4349544;33;20219;-89
2022/10/09 08:35:48;;;;;;;15.33;8.70;;;;;;;;;;4349406;33;20253;-89
2022/10/09 08:38:15;;;;;;;15.53;8.70;;;;;;;;;;4349396;33;20223;-89
2022/10/09 08:40:48;;;;;;;14.20;9.70;;;;;;;;;;4349617;33;20329;-90
2022/10/09 08:43:19;;;;;;;25.80;9.60;;;;;;;;;;4350632;33;20258;-88
2022/10/09 08:45:48;;;;;;;14.80;7.83;;;;;;;;;;4352705;33;20230;-87
2022/10/09 08:48:17;;;;;;;13.27;7.83;;;;;;;;;;4352718;33;20566;-87
2022/10/09 08:50:50;;;;;;;13.80;7.53;;;;;;;;;;4352866;33;20605;-88
2022/10/09 08:53:28;;;;;;;15.47;7.17;;;;;;;;;;4353777;33;20648;-86
2022/10/09 08:55:57;;;;;;;11.50;7.65;;;;;;;;;;4356981;33;20230;-85
2022/10/09 08:58:28;;;;;;;14.67;7.00;;;;;;;;;;4356789;33;20241;-87
2022/10/09 09:01:04;;;;;;;12.60;7.37;;;;;;;;;;4349612;33;20290;-87
2022/10/09 09:03:53;;;;;;;11.77;6.70;;;;;;;;;;4349402;33;20215;-87
2022/10/09 09:06:34;;;;;;;11.52;7.20;;;;;;;;;;4350169;33;20233;-88
2022/10/09 09:09:07;;;;;;;12.17;6.27;;;;;;;;;;4349626;33;20230;-90
2022/10/09 09:11:42;;;;;;;11.15;6.62;;;;;;;;;;4350222;33;20245;-88
2022/10/09 09:14:26;;;;;;;9.63;6.87;;;;;;;;;;4348793;33;20234;-87
2022/10/09 09:16:58;;;;;;;10.93;7.47;;;;;;;;;;4349956;33;20289;-88
2022/10/09 09:19:42;;;;;;;10.60;7.15;;;;;;;;;;4348393;33;20231;-88
2022/10/09 09:22:13;;;;;;;10.05;7.12;;;;;;;;;;4348505;33;20269;-89
2022/10/09 09:24:44;;;;;;;10.85;6.47;;;;;;;;;;4348435;33;20608;-88
2022/10/09 09:27:14;;;;;;;9.73;5.90;;;;;;;;;;4348799;33;20211;-87
2022/10/09 09:29:44;;;;;;;13.80;6.85;;;;;;;;;;4348487;33;20234;-89
2022/10/09 09:32:20;;;;;;;10.25;6.70;;;;;;;;;;4348230;33;20214;-88
2022/10/09 09:34:48;;;;;;;13.32;6.82;;;;;;;;;;4348401;33;20268;-89
2022/10/09 09:37:16;;;;;;;19.73;7.28;;;;;;;;;;4348414;33;20646;-88
2022/10/09 09:39:44;;;;;;;12.07;6.78;;;;;;;;;;4347860;33;20238;-88
2022/10/09 09:42:16;;;;;;;9.55;6.05;;;;;;;;;;4348677;33;20256;-88
2022/10/09 09:44:49;;;;;;;12.30;7.12;;;;;;;;;;4348301;33;20234;-88
2022/10/09 09:47:23;;;;;;;7.55;5.65;;;;;;;;;;4348590;33;20290;-90
2022/10/09 09:49:55;;;;;;;8.05;5.82;;;;;;;;;;4348855;33;20234;-89
2022/10/09 09:52:26;;;;;;;7.75;5.55;;;;;;;;;;4347775;33;20316;-90
2022/10/09 09:54:55;;;;;;;9.95;5.95;;;;;;;;;;4347624;33;20595;-89
2022/10/09 09:57:30;;;;;;;11.63;6.55;;;;;;;;;;4348026;33;20332;-88
2022/10/09 10:00:08;;;;;;;8.05;5.95;;;;;;;;;;4348097;33;20296;-89
2022/10/09 10:02:35;;;;;;;7.25;5.50;;;;;;;;;;4347901;33;20226;-88
2022/10/09 10:05:14;;;;;;;7.22;4.95;;;;;;;;;;4347792;33;20618;-89
2022/10/09 10:07:42;;;;;;;8.60;4.55;;;;;;;;;;4347745;33;20576;-89
2022/10/09 10:10:15;;;;;;;8.98;4.97;;;;;;;;;;4347503;33;20231;-89
2022/10/09 10:12:44;;;;;;;9.25;4.30;;;;;;;;;;4347976;33;20324;-90
2022/10/09 10:15:25;;;;;;;8.20;5.03;;;;;;;;;;4347863;33;20600;-89
2022/10/09 10:17:59;;;;;;;12.05;5.25;;;;;;;;;;4348039;33;20273;-89
2022/10/09 10:20:27;;;;;;;7.22;3.95;;;;;;;;;;4347568;33;20610;-89
2022/10/09 10:22:57;;;;;;;12.60;3.95;;;;;;;;;;4347003;33;20632;-89
2022/10/09 10:25:29;;;;;;;5.45;3.47;;;;;;;;;;4347952;33;20239;-89
2022/10/09 10:28:01;;;;;;;5.35;3.30;;;;;;;;;;4347769;33;20214;-88
2022/10/09 10:30:28;;;;;;;5.87;3.50;;;;;;;;;;4347641;33;20248;-90
2022/10/09 10:32:59;;;;;;;3.75;2.67;;;;;;;;;;4347435;33;20226;-90
2022/10/09 10:35:28;;;;;;;9.80;3.72;;;;;;;;;;4347558;33;20231;-89
2022/10/09 10:38:04;;;;;;;8.95;4.47;;;;;;;;;;4347335;33;20612;-90
2022/10/09 10:40:33;;;;;;;5.65;3.70;;;;;;;;;;4347103;33;20230;-89
2022/10/09 10:43:14;;;;;;;5.25;3.45;;;;;;;;;;4347596;33;20270;-91
2022/10/09 10:45:52;;;;;;;8.15;3.65;;;;;;;;;;4347621;33;20226;-91
2022/10/09 10:48:25;;;;;;;7.55;3.62;;;;;;;;;;4347471;33;20289;-90
2022/10/09 10:51:03;;;;;;;12.20;3.97;;;;;;;;;;4346858;33;20226;-90
2022/10/09 10:53:44;;;;;;;12.18;4.10;;;;;;;;;;4346828;33;20526;-90
2022/10/09 10:56:22;;;;;;;6.22;3.45;;;;;;;;;;4347538;33;20214;-91
2022/10/09 10:58:59;;;;;;;6.65;3.22;;;;;;;;;;4347170;33;20222;-91
2022/10/09 11:01:35;;;;;;;14.77;8.43;;;;;;;;;;4346749;33;20627;-89
2022/10/09 11:04:21;;;;;;;10.10;6.07;;;;;;;;;;4347072;33;20277;-91
2022/10/09 11:07:02;;;;;;;11.35;3.78;;;;;;;;;;4347407;33;20258;-90
2022/10/09 11:09:40;;;;;;;8.07;5.03;;;;;;;;;;4347329;33;20312;-90
2022/10/09 11:12:16;;;;;;;6.37;3.40;;;;;;;;;;4347243;33;20219;-91
2022/10/09 11:14:49;;;;;;;4.62;2.83;;;;;;;;;;4347260;33;20227;-90
2022/10/09 11:17:27;;;;;;;7.57;2.87;;;;;;;;;;4347132;33;20227;-91
2022/10/09 11:20:06;;;;;;;4.57;3.00;;;;;;;;;;4346833;33;20375;-91
2022/10/09 11:22:44;;;;;;;5.30;3.17;;;;;;;;;;4346739;33;20591;-91
2022/10/09 11:25:26;;;;;;;4.43;2.97;;;;;;;;;;4347342;33;20223;-89
2022/10/09 11:27:58;;;;;;;4.65;2.83;;;;;;;;;;4350101;33;20295;-91
2022/10/09 11:30:30;;;;;;;3.78;2.78;;;;;;;;;;4349520;33;20238;-91
2022/10/09 11:33:03;;;;;;;11.88;4.03;;;;;;;;;;4349817;33;20603;-92
2022/10/09 11:35:37;;;;;;;16.85;3.65;;;;;;;;;;4349666;33;20598;-90
2022/10/09 11:38:07;;;;;;;12.70;3.20;;;;;;;;;;4350253;33;20285;-91
2022/10/09 11:40:40;;;;;;;6.62;3.58;;;;;;;;;;4349415;33;20624;-91
2022/10/09 11:43:18;;;;;;;6.85;3.42;;;;;;;;;;4349841;33;20219;-92
2022/10/09 11:45:51;;;;;;;5.25;2.78;;;;;;;;;;4349278;33;20234;-92
2022/10/09 11:48:22;;;;;;;9.80;4.00;;;;;;;;;;4349823;33;20608;-91
2022/10/09 11:50:58;;;;;;;10.68;4.35;;;;;;;;;;4349872;33;20227;-90
2022/10/09 11:53:26;;;;;;;13.02;3.42;;;;;;;;;;4349642;33;20301;-91
2022/10/09 11:56:03;;;;;;;4.57;3.17;;;;;;;;;;4349199;33;20651;-92
2022/10/09 11:58:31;;;;;;;4.82;3.20;;;;;;;;;;4350024;33;20516;-90
2022/10/09 12:01:11;;;;;;;7.72;2.95;;;;;;;;;;4349669;33;20533;-91
2022/10/09 12:03:40;;;;;;;4.97;3.08;;;;;;;;;;4349782;33;20273;-92
2022/10/09 12:06:10;;;;;;;4.40;3.05;;;;;;;;;;4349470;33;20202;-91
2022/10/09 12:08:38;;;;;;;7.57;3.42;;;;;;;;;;4348901;33;20215;-90
2022/10/09 12:11:13;;;;;;;7.53;3.05;;;;;;;;;;4348998;33;20221;-90
2022/10/09 12:13:45;;;;;;;3.85;2.83;;;;;;;;;;4349262;33;20289;-90
2022/10/09 12:16:39;;;;;;;9.80;3.62;;;;;;;;;;4349573;33;20221;-90
2022/10/09 12:19:15;;;;;;;5.15;3.40;;;;;;;;;;4349104;33;20222;-90
2022/10/09 12:21:51;;;;;;;9.23;2.97;;;;;;;;;;4349319;33;20226;-89
2022/10/09 12:24:21;;;;;;;11.48;3.17;;;;;;;;;;4349006;33;20227;-91
2022/10/09 12:26:51;;;;;;;6.03;3.50;;;;;;;;;;4349049;33;20207;-91
2022/10/09 12:29:24;;;;;;;4.75;2.30;;;;;;;;;;4348798;33;20222;-91
2022/10/09 12:31:55;;;;;;;6.87;2.62;;;;;;;;;;4349255;33;20650;-91
2022/10/09 12:34:25;;;;;;;4.85;3.08;;;;;;;;;;4349461;33;20231;-91
2022/10/09 12:37:02;;;;;;;9.15;3.10;;;;;;;;;;4348804;33;20206;-91
2022/10/09 12:39:32;;;;;;;7.72;2.62;;;;;;;;;;4349534;33;20241;-91
2022/10/09 12:42:02;;;;;;;7.85;2.83;;;;;;;;;;4348896;33;20257;-91
2022/10/09 12:44:32;;;;;;;4.75;3.10;;;;;;;;;;4348951;33;20241;-90
2022/10/09 12:47:03;;;;;;;6.43;2.80;;;;;;;;;;4349356;33;20265;-90
2022/10/09 12:49:30;;;;;;;4.65;3.10;;;;;;;;;;4349309;33;20616;-92
2022/10/09 12:51:59;;;;;;;7.20;2.67;;;;;;;;;;4348641;33;20219;-92
2022/10/09 12:54:29;;;;;;;6.57;2.90;;;;;;;;;;4348796;33;20579;-92
2022/10/09 12:56:57;;;;;;;5.35;3.30;;;;;;;;;;4348930;33;20199;-91
2022/10/09 12:59:28;;;;;;;2.90;2.55;;;;;;;;;;4348879;33;20294;-92
2022/10/09 13:01:58;;;;;;;4.25;2.40;;;;;;;;;;4348203;33;20202;-91
2022/10/09 13:04:27;;;;;;;6.22;2.50;;;;;;;;;;4348815;33;20363;-91
2022/10/09 13:06:55;;;;;;;4.45;2.62;;;;;;;;;;4348715;33;20278;-90
2022/10/09 13:09:26;;;;;;;10.07;3.53;;;;;;;;;;4348834;33;20226;-91
2022/10/09 13:11:56;;;;;;;4.12;2.60;;;;;;;;;;4349131;33;20624;-91
2022/10/09 13:14:34;;;;;;;8.27;3.22;;;;;;;;;;4348052;33;20215;-90
2022/10/09 13:17:02;;;;;;;5.60;2.80;;;;;;;;;;4348731;33;20228;-91
2022/10/09 13:19:31;;;;;;;8.70;3.85;;;;;;;;;;4348707;33;20301;-91
2022/10/09 13:22:06;;;;;;;6.55;3.22;;;;;;;;;;4348130;33;20215;-91
2022/10/09 13:24:34;;;;;;;2.85;2.35;;;;;;;;;;4348739;33;20218;-93
2022/10/09 13:27:02;;;;;;;6.50;2.92;;;;;;;;;;4348490;33;20198;-92
2022/10/09 13:29:30;;;;;;;8.93;3.28;;;;;;;;;;4348699;33;20219;-92
2022/10/09 13:31:57;;;;;;;7.68;2.62;;;;;;;;;;4348563;33;20225;-91
2022/10/09 13:34:27;;;;;;;4.95;2.72;;;;;;;;;;4348559;33;20360;-92
2022/10/09 13:36:55;;;;;;;3.65;2.40;;;;;;;;;;4348728;33;20274;-91
2022/10/09 13:39:21;;;;;;;4.07;2.30;;;;;;;;;;4348152;33;20240;-91
2022/10/09 13:41:51;;;;;;;9.13;2.70;;;;;;;;;;4348827;33;20224;-91
2022/10/09 13:44:18;;;;;;;2.90;2.20;;;;;;;;;;4348116;33;20222;-91
2022/10/09 13:46:47;;;;;;;7.30;3.00;;;;;;;;;;4348893;33;20202;-91
2022/10/09 13:49:14;;;;;;;5.53;3.22;;;;;;;;;;4348115;33;20309;-91
2022/10/09 13:51:41;;;;;;;9.80;2.85;;;;;;;;;;4348225;33;20219;-91
2022/10/09 13:54:08;;;;;;;7.18;3.70;;;;;;;;;;4348387;33;20241;-90
2022/10/09 13:56:35;;;;;;;6.03;3.47;;;;;;;;;;4348291;33;20206;-91
2022/10/09 13:59:02;;;;;;;10.45;2.80;;;;;;;;;;4348554;33;20303;-89
2022/10/09 14:01:29;;;;;;;5.10;2.80;;;;;;;;;;4348514;33;20218;-90
2022/10/09 14:03:57;;;;;;;6.78;2.87;;;;;;;;;;4348043;33;20220;-90
2022/10/09 14:06:24;;;;;;;4.60;3.33;;;;;;;;;;4348099;33;20270;-92
2022/10/09 14:08:51;;;;;;;9.68;4.85;;;;;;;;;;4348258;33;20215;-90
2022/10/09 14:11:17;;;;;;;6.32;4.22;;;;;;;;;;4348196;33;20210;-90
2022/10/09 14:13:44;;;;;;;6.43;2.97;;;;;;;;;;4348099;33;20300;-91
2022/10/09 14:16:11;;;;;;;3.33;2.30;;;;;;;;;;4348264;33;20207;-89
2022/10/09 14:18:38;;;;;;;10.48;2.70;;;;;;;;;;4348286;33;20250;-90
2022/10/09 14:21:11;;;;;;;5.32;2.87;;;;;;;;;;4348060;33;20240;-91
2022/10/09 14:23:38;;;;;;;7.85;3.25;;;;;;;;;;4348145;33;20224;-90
2022/10/09 14:26:05;;;;;;;9.20;2.67;;;;;;;;;;4347187;33;20331;-92
2022/10/09 14:28:32;;;;;;;13.50;3.30;;;;;;;;;;4347979;33;20224;-90
2022/10/09 14:30:59;;;;;;;8.27;3.45;;;;;;;;;;4347279;33;20298;-92
2022/10/09 14:33:26;;;;;;;9.85;4.45;;;;;;;;;;4348197;33;20233;-91
2022/10/09 14:35:53;;;;;;;7.70;3.55;;;;;;;;;;4347730;33;20215;-91
2022/10/09 14:38:21;;;;;;;8.23;4.45;;;;;;;;;;4348191;33;20219;-91
2022/10/09 14:40:48;;;;;;;61.65;32.78;;;;;;;;;;4348058;33;20612;-91
2022/10/09 14:43:15;;;;;;;33.15;17.25;;;;;;;;;;4348612;33;20278;-90